createdAt,value
2018-05-12T10:13:57.284Z,101394.67
2018-05-12T10:16:24.919Z,101395.81
2018-05-12T10:18:52.533Z,101398.38
2018-05-12T10:21:20.346Z,101403.89
2018-05-12T10:23:48.213Z,101393.75
2018-05-12T10:26:15.837Z,101394.49
2018-05-12T10:28:43.867Z,101391.11
2018-05-12T10:31:11.614Z,101392.95
2018-05-12T10:33:39.237Z,101389.33
2018-05-12T10:36:07.445Z,101394.48
2018-05-12T10:38:36.458Z,101390.22
2018-05-12T10:41:04.074Z,101387.12
2018-05-12T10:43:31.675Z,101384.50
2018-05-12T10:45:59.435Z,101386.54
2018-05-12T10:48:27.124Z,101384.14
2018-05-12T10:50:54.692Z,101381.03
2018-05-12T10:53:23.646Z,101369.17
2018-05-12T10:55:51.393Z,101366.12
2018-05-12T10:58:19.202Z,101373.38
2018-05-12T11:00:46.823Z,101371.06
2018-05-12T11:03:14.433Z,101365.73
2018-05-12T11:05:42.300Z,101364.19
2018-05-12T11:08:10.556Z,101370.97
2018-05-12T11:10:38.165Z,101363.92
2018-05-12T11:13:05.781Z,101363.06
2018-05-12T11:15:33.955Z,101355.92
2018-05-12T11:18:01.528Z,101349.21
2018-05-12T11:20:29.333Z,101348.06
2018-05-12T11:22:56.915Z,101345.61
2018-05-12T11:25:25.568Z,101350.00
2018-05-12T11:27:54.978Z,101348.37
2018-05-12T11:30:22.851Z,101350.38
2018-05-12T11:32:50.633Z,101349.54
2018-05-12T11:35:18.238Z,101346.97
2018-05-12T11:37:46.185Z,101344.01
2018-05-12T11:40:14.538Z,101342.69
2018-05-12T11:42:42.136Z,101340.74
2018-05-12T11:45:09.765Z,101337.08
2018-05-12T11:47:37.397Z,101325.95
2018-05-12T11:50:05.273Z,101332.64
2018-05-12T11:52:33.313Z,101341.00
2018-05-12T11:55:00.903Z,101334.84
2018-05-12T11:57:28.512Z,101335.23
2018-05-12T11:59:56.519Z,101333.50
2018-05-12T12:02:24.206Z,101320.80
2018-05-12T12:04:51.778Z,101321.83
2018-05-12T12:07:19.396Z,101322.66
2018-05-12T12:09:47.025Z,101318.23
2018-05-12T12:12:14.701Z,101324.15
2018-05-12T12:14:42.320Z,101320.49
2018-05-12T12:17:10.960Z,101321.00
2018-05-12T12:19:38.710Z,101320.47
2018-05-12T12:22:06.317Z,101315.84
2018-05-12T12:24:34.300Z,101319.02
2018-05-12T12:27:03.448Z,101312.44
2018-05-12T12:29:31.313Z,101317.07
2018-05-12T12:32:00.273Z,101313.39
2018-05-12T12:34:27.851Z,101311.66
2018-05-12T12:36:57.478Z,101310.23
2018-05-12T12:39:26.880Z,101304.37
2018-05-12T12:41:54.499Z,101298.66
2018-05-12T12:44:22.074Z,101301.78
2018-05-12T12:46:49.677Z,101293.36
2018-05-12T12:49:17.344Z,101295.03
2018-05-12T12:51:46.389Z,101292.43
2018-05-12T12:54:15.509Z,101292.09
2018-05-12T12:56:43.119Z,101287.53
2018-05-12T12:59:10.725Z,101287.39
2018-05-12T13:01:38.353Z,101287.09
2018-05-12T13:04:07.612Z,101286.36
2018-05-12T13:06:35.931Z,101293.38
2018-05-12T13:09:03.553Z,101279.08
2018-05-12T13:11:32.739Z,101277.77
2018-05-12T13:14:00.397Z,101279.59
2018-05-12T13:16:27.981Z,101273.43
2018-05-12T13:18:55.601Z,101272.85
2018-05-12T13:21:23.178Z,101276.84
2018-05-12T13:23:55.182Z,101267.91
2018-05-12T13:26:22.862Z,101272.38
2018-05-12T13:28:50.471Z,101260.11
2018-05-12T13:31:18.113Z,101266.12
2018-05-12T13:33:45.737Z,101260.83
2018-05-12T13:36:13.313Z,101261.84
2018-05-12T13:38:40.928Z,101253.61
2018-05-12T13:41:08.501Z,101259.90
2018-05-12T13:43:36.126Z,101256.23
2018-05-12T13:46:03.757Z,101247.41
2018-05-12T13:48:31.345Z,101242.08
2018-05-12T13:51:03.719Z,101241.39
2018-05-12T13:53:31.617Z,101236.77
2018-05-12T13:55:59.244Z,101230.33
2018-05-12T13:58:27.445Z,101233.32
2018-05-12T14:00:55.052Z,101233.81
2018-05-12T14:03:23.089Z,101234.64
2018-05-12T14:05:50.754Z,101239.50
2018-05-12T14:08:18.368Z,101234.15
2018-05-12T14:10:45.953Z,101231.91
2018-05-12T14:13:13.723Z,101225.41
2018-05-12T14:15:41.666Z,101225.97
2018-05-12T14:18:09.628Z,101229.42
2018-05-12T14:20:37.329Z,101230.27
2018-05-12T14:23:04.982Z,101223.30
2018-05-12T14:25:32.561Z,101219.86
2018-05-12T14:28:00.169Z,101224.16
2018-05-12T14:30:27.814Z,101219.59
2018-05-12T14:32:55.531Z,101223.50
2018-05-12T14:35:23.096Z,101215.94
2018-05-12T14:37:50.721Z,101218.12
2018-05-12T14:40:18.327Z,101213.19
2018-05-12T14:42:45.988Z,101206.20
2018-05-12T14:45:13.618Z,101205.15
2018-05-12T14:47:41.260Z,101210.27
2018-05-12T14:50:08.889Z,101204.09
2018-05-12T14:52:36.502Z,101206.75
2018-05-12T14:55:04.486Z,101204.22
2018-05-12T14:57:32.544Z,101202.63
2018-05-12T15:00:00.130Z,101203.48
2018-05-12T15:02:28.378Z,101201.05
2018-05-12T15:04:55.997Z,101202.11
2018-05-12T15:07:24.212Z,101196.67
2018-05-12T15:09:51.970Z,101205.56
2018-05-12T15:12:19.718Z,101204.27
2018-05-12T15:14:47.381Z,101205.29
2018-05-12T15:17:16.513Z,101201.59
2018-05-12T15:19:44.141Z,101204.25
2018-05-12T15:22:12.927Z,101201.57
2018-05-12T15:24:41.630Z,101201.28
2018-05-12T15:27:09.234Z,101199.95
2018-05-12T15:29:36.806Z,101197.38
2018-05-12T15:32:04.910Z,101204.84
2018-05-12T15:34:32.524Z,101194.95
2018-05-12T15:37:01.122Z,101194.85
2018-05-12T15:39:29.320Z,101196.82
2018-05-12T15:41:56.937Z,101187.69
2018-05-12T15:44:24.853Z,101183.28
2018-05-12T15:46:52.718Z,101188.02
2018-05-12T15:49:20.480Z,101186.48
2018-05-12T15:51:48.474Z,101184.48
2018-05-12T15:54:16.126Z,101186.17
2018-05-12T15:56:44.944Z,101182.48
2018-05-12T15:59:14.236Z,101184.21
2018-05-12T16:01:42.049Z,101178.11
2018-05-12T16:04:10.304Z,101183.16
2018-05-12T16:06:38.714Z,101171.91
2018-05-12T16:09:06.845Z,101171.19
2018-05-12T16:11:35.019Z,101167.06
2018-05-12T16:14:02.989Z,101170.40
2018-05-12T16:16:30.788Z,101166.28
2018-05-12T16:18:58.409Z,101164.21
2018-05-12T16:21:26.576Z,101166.54
2018-05-12T16:23:54.386Z,101171.23
2018-05-12T16:26:23.231Z,101161.73
2018-05-12T16:28:51.141Z,101162.11
2018-05-12T16:31:18.946Z,101169.23
2018-05-12T16:33:46.573Z,101167.62
2018-05-12T16:36:14.166Z,101162.78
2018-05-12T16:38:41.909Z,101160.77
2018-05-12T16:41:10.064Z,101167.16
2018-05-12T16:43:39.094Z,101160.34
2018-05-12T16:46:07.098Z,101162.67
2018-05-12T16:48:34.687Z,101156.48
2018-05-12T16:51:02.622Z,101152.89
2018-05-12T16:53:30.222Z,101157.16
2018-05-12T16:55:58.380Z,101159.68
2018-05-12T16:58:25.968Z,101158.65
2018-05-12T17:00:53.589Z,101162.05
2018-05-12T17:03:21.805Z,101169.09
2018-05-12T17:05:49.376Z,101160.91
2018-05-12T17:08:17.007Z,101161.56
2018-05-12T17:10:44.578Z,101161.72
2018-05-12T17:13:12.229Z,101166.90
2018-05-12T17:15:39.808Z,101164.91
2018-05-12T17:18:07.415Z,101165.64
2018-05-12T17:20:35.029Z,101166.95
2018-05-12T17:23:02.927Z,101164.28
2018-05-12T17:25:30.497Z,101162.96
2018-05-12T17:27:58.117Z,101166.89
2018-05-12T17:30:25.708Z,101158.66
2018-05-12T17:32:53.291Z,101164.31
2018-05-12T17:35:20.911Z,101166.61
2018-05-12T17:37:48.555Z,101164.86
2018-05-12T17:40:16.185Z,101167.30
2018-05-12T17:42:45.170Z,101162.95
2018-05-12T17:45:13.464Z,101161.41
2018-05-12T17:47:41.103Z,101159.16
2018-05-12T17:50:08.818Z,101153.12
2018-05-12T17:52:36.385Z,101151.27
2018-05-12T17:55:04.924Z,101147.08
2018-05-12T17:57:33.372Z,101150.52
2018-05-12T18:00:01.573Z,101147.39
2018-05-12T18:02:30.557Z,101147.06
2018-05-12T18:04:58.140Z,101146.12
2018-05-12T18:07:25.749Z,101149.01
2018-05-12T18:09:53.332Z,101152.13
2018-05-12T18:12:21.486Z,101154.38
2018-05-12T18:14:49.164Z,101150.86
2018-05-12T18:17:16.828Z,101147.27
2018-05-12T18:19:44.433Z,101154.42
2018-05-12T18:22:12.048Z,101148.94
2018-05-12T18:24:39.663Z,101155.68
2018-05-12T18:27:07.286Z,101150.67
2018-05-12T18:29:34.859Z,101144.41
2018-05-12T18:32:03.268Z,101153.47
2018-05-12T18:34:31.140Z,101155.45
2018-05-12T18:36:59.629Z,101162.25
2018-05-12T18:39:27.473Z,101156.13
2018-05-12T18:41:55.058Z,101153.20
2018-05-12T18:44:22.829Z,101154.50
2018-05-12T18:46:50.755Z,101148.66
2018-05-12T18:49:18.368Z,101156.76
2018-05-12T18:51:45.997Z,101158.33
2018-05-12T18:54:13.623Z,101154.02
2018-05-12T18:56:41.332Z,101150.11
2018-05-12T18:59:08.925Z,101149.97
2018-05-12T19:01:36.736Z,101148.38
2018-05-12T19:04:04.942Z,101148.91
2018-05-12T19:06:32.567Z,101158.16
2018-05-12T19:09:00.195Z,101158.53
2018-05-12T19:11:27.782Z,101160.27
2018-05-12T19:13:55.417Z,101158.48
2018-05-12T19:16:23.020Z,101158.01
2018-05-12T19:18:50.655Z,101161.69
2018-05-12T19:21:18.237Z,101162.33
2018-05-12T19:23:46.193Z,101161.88
2018-05-12T19:26:13.816Z,101165.05
2018-05-12T19:28:41.393Z,101168.09
2018-05-12T19:31:09.065Z,101170.31
2018-05-12T19:33:36.641Z,101173.97
2018-05-12T19:36:04.283Z,101177.61
2018-05-12T19:38:31.888Z,101174.94
2018-05-12T19:40:59.512Z,101175.78
2018-05-12T19:43:27.322Z,101177.44
2018-05-12T19:45:54.904Z,101180.70
2018-05-12T19:48:22.529Z,101177.66
2018-05-12T19:50:50.564Z,101182.44
2018-05-12T19:53:18.145Z,101176.70
2018-05-12T19:55:45.725Z,101182.08
2018-05-12T19:58:13.950Z,101176.59
2018-05-12T20:00:41.536Z,101177.66
2018-05-12T20:03:09.156Z,101182.69
2018-05-12T20:05:36.775Z,101173.77
2018-05-12T20:08:04.365Z,101180.16
2018-05-12T20:10:31.980Z,101172.72
2018-05-12T20:12:59.618Z,101172.72
2018-05-12T20:15:27.193Z,101171.80
2018-05-12T20:17:54.776Z,101168.34
2018-05-12T20:20:22.407Z,101172.52
2018-05-12T20:22:49.985Z,101179.67
2018-05-12T20:25:17.584Z,101161.94
2018-05-12T20:27:45.201Z,101163.69
2018-05-12T20:30:12.800Z,101160.88
2018-05-12T20:32:40.433Z,101159.23
2018-05-12T20:35:08.008Z,101155.02
2018-05-12T20:37:35.642Z,101154.41
2018-05-12T20:40:03.280Z,101154.31
2018-05-12T20:42:30.904Z,101158.69
2018-05-12T20:44:58.521Z,101157.52
2018-05-12T20:47:26.106Z,101158.50
2018-05-12T20:49:53.758Z,101154.50
2018-05-12T20:52:21.348Z,101149.38
2018-05-12T20:54:48.989Z,101149.44
2018-05-12T20:57:16.609Z,101158.40
2018-05-12T20:59:44.239Z,101155.30
2018-05-12T21:02:11.826Z,101161.22
2018-05-12T21:04:39.447Z,101162.48
2018-05-12T21:07:07.537Z,101157.64
2018-05-12T21:09:35.164Z,101161.55
2018-05-12T21:12:02.928Z,101165.45
2018-05-12T21:14:30.568Z,101165.39
2018-05-12T21:16:58.151Z,101165.41
2018-05-12T21:19:25.926Z,101168.05
2018-05-12T21:21:53.536Z,101163.02
2018-05-12T21:24:21.130Z,101167.39
2018-05-12T21:26:48.745Z,101169.78
2018-05-12T21:29:16.492Z,101167.80
2018-05-12T21:31:44.077Z,101163.84
2018-05-12T21:34:11.657Z,101162.11
2018-05-12T21:36:39.535Z,101168.22
2018-05-12T21:39:07.125Z,101170.11
2018-05-12T21:41:34.700Z,101161.84
2018-05-12T21:44:02.314Z,101163.63
2018-05-12T21:46:29.928Z,101166.12
2018-05-12T21:48:57.512Z,101148.30
2018-05-12T21:51:25.464Z,101153.33
2018-05-12T21:53:53.073Z,101153.03
2018-05-12T21:56:20.689Z,101153.50
2018-05-12T21:58:48.276Z,101151.41
2018-05-12T22:01:16.241Z,101155.50
2018-05-12T22:03:44.390Z,101154.06
2018-05-12T22:06:12.276Z,101152.36
2018-05-12T22:08:39.904Z,101148.92
2018-05-12T22:11:07.485Z,101151.28
2018-05-12T22:13:35.097Z,101150.19
2018-05-12T22:16:02.687Z,101150.14
2018-05-12T22:18:30.336Z,101146.24
2018-05-12T22:20:58.454Z,101143.86
2018-05-12T22:23:26.073Z,101138.91
2018-05-12T22:25:53.655Z,101145.79
2018-05-12T22:28:21.261Z,101144.39
2018-05-12T22:30:48.841Z,101150.03
2018-05-12T22:33:16.453Z,101144.92
2018-05-12T22:35:44.068Z,101136.97
2018-05-12T22:38:12.289Z,101142.73
2018-05-12T22:40:39.949Z,101137.24
2018-05-12T22:43:07.536Z,101133.56
2018-05-12T22:45:35.158Z,101128.42
2018-05-12T22:48:02.733Z,101128.80
2018-05-12T22:50:30.349Z,101127.06
2018-05-12T22:52:58.415Z,101125.64
2018-05-12T22:55:26.029Z,101122.05
2018-05-12T22:57:53.836Z,101118.39
2018-05-12T23:00:37.258Z,101118.39
2018-05-12T23:03:04.841Z,101116.70
2018-05-12T23:05:32.461Z,101122.97
2018-05-12T23:08:00.037Z,101122.69
2018-05-12T23:10:27.659Z,101111.89
2018-05-12T23:12:55.242Z,101115.96
2018-05-12T23:15:22.861Z,101112.16
2018-05-12T23:17:50.718Z,101116.45
2018-05-12T23:20:18.341Z,101114.30
2018-05-12T23:22:47.809Z,101115.43
2018-05-12T23:25:15.385Z,101115.20
2018-05-12T23:27:43.015Z,101120.80
2018-05-12T23:30:10.605Z,101120.01
2018-05-12T23:32:38.221Z,101121.42
2018-05-12T23:35:05.801Z,101126.96
2018-05-12T23:37:33.418Z,101129.23
2018-05-12T23:40:01.038Z,101117.81
2018-05-12T23:42:29.300Z,101119.31
2018-05-12T23:44:56.885Z,101123.50
2018-05-12T23:47:24.500Z,101118.98
2018-05-12T23:49:52.318Z,101116.77
2018-05-12T23:52:19.933Z,101108.89
2018-05-12T23:54:47.517Z,101104.39
2018-05-12T23:57:15.134Z,101101.10
2018-05-12T23:59:43.091Z,101118.77
